Terminal Aerodrome Forecast
Issued by NWS

Home | Current Version | Previous Version | Text Only | Print | Product List | Glossary On
Versions: 1 2 3 4 5 6 7 8 9 10 11 12 13 14 15 16 17
000
FTUS43 KTOP 261100
TAFMHK
TAF
KMHK 261128Z 2612/2712 24011KT P6SM SKC
     FM261700 30010G19KT P6SM SKC
     FM270000 34002KT P6SM SKC=

USA.gov is the U.S. government's official web portal to all federal, state and local government web resources and services.